sensor_id;sensor_type;location;lat;lon;timestamp;pressure;altitude;pressure_sealevel;temperature;humidity
7474;BME280;3778;42.572;23.426;2023-02-03T00:00:02;95531.00;;;-146.70;69.23
7474;BME280;3778;42.572;23.426;2023-02-03T00:02:29;95597.72;;;-146.70;68.92
7474;BME280;3778;42.572;23.426;2023-02-03T00:04:57;95518.50;;;-146.70;68.72
7474;BME280;3778;42.572;23.426;2023-02-03T00:07:24;95581.03;;;-146.70;68.74
7474;BME280;3778;42.572;23.426;2023-02-03T00:09:50;95558.13;;;-146.70;68.52
7474;BME280;3778;42.572;23.426;2023-02-03T00:12:17;95553.94;;;-146.70;68.65
7474;BME280;3778;42.572;23.426;2023-02-03T00:14:44;95520.59;;;-146.70;69.26
7474;BME280;3778;42.572;23.426;2023-02-03T00:17:11;95535.19;;;-146.70;69.39
7474;BME280;3778;42.572;23.426;2023-02-03T00:19:39;95547.69;;;-146.70;69.66
7474;BME280;3778;42.572;23.426;2023-02-03T00:22:07;95583.13;;;-146.70;70.06
7474;BME280;3778;42.572;23.426;2023-02-03T00:24:34;95543.53;;;-146.70;69.61
7474;BME280;3778;42.572;23.426;2023-02-03T00:27:00;95514.34;;;-146.70;70.73
7474;BME280;3778;42.572;23.426;2023-02-03T00:29:27;95585.22;;;-146.70;70.22
7474;BME280;3778;42.572;23.426;2023-02-03T00:31:54;95551.88;;;-146.70;70.88
7474;BME280;3778;42.572;23.426;2023-02-03T00:34:21;95535.19;;;-146.70;70.85
7474;BME280;3778;42.572;23.426;2023-02-03T00:36:47;95528.94;;;-146.70;71.42
7474;BME280;3778;42.572;23.426;2023-02-03T00:39:15;95551.88;;;-146.70;72.05
7474;BME280;3778;42.572;23.426;2023-02-03T00:41:42;95574.78;;;-146.70;72.61
7474;BME280;3778;42.572;23.426;2023-02-03T00:44:09;95512.25;;;-146.70;73.41
7474;BME280;3778;42.572;23.426;2023-02-03T00:46:36;95520.59;;;-146.70;74.09
7474;BME280;3778;42.572;23.426;2023-02-03T00:49:03;95549.78;;;-146.70;74.71
7474;BME280;3778;42.572;23.426;2023-02-03T00:51:29;95583.13;;;-146.70;74.90
7474;BME280;3778;42.572;23.426;2023-02-03T00:53:56;95562.28;;;-146.70;75.15
7474;BME280;3778;42.572;23.426;2023-02-03T00:56:24;95578.97;;;-146.70;75.35
7474;BME280;3778;42.572;23.426;2023-02-03T00:58:51;95593.56;;;-146.70;75.73
7474;BME280;3778;42.572;23.426;2023-02-03T01:01:18;95553.94;;;-146.70;75.95
7474;BME280;3778;42.572;23.426;2023-02-03T01:03:44;95660.25;;;-146.70;75.94
7474;BME280;3778;42.572;23.426;2023-02-03T01:06:13;95591.47;;;-146.70;75.58
7474;BME280;3778;42.572;23.426;2023-02-03T01:08:41;95531.00;;;-146.70;75.46
7474;BME280;3778;42.572;23.426;2023-02-03T01:11:10;95558.13;;;-146.70;75.75
7474;BME280;3778;42.572;23.426;2023-02-03T01:13:38;95587.31;;;-146.70;75.45
7474;BME280;3778;42.572;23.426;2023-02-03T01:16:07;95597.72;;;-146.70;75.50
7474;BME280;3778;42.572;23.426;2023-02-03T01:18:34;95516.44;;;-146.70;76.96
7474;BME280;3778;42.572;23.426;2023-02-03T01:21:04;95587.31;;;-146.70;77.80
7474;BME280;3778;42.572;23.426;2023-02-03T01:23:32;95562.28;;;-146.70;78.00
7474;BME280;3778;42.572;23.426;2023-02-03T01:26:02;95645.66;;;-146.70;78.27
7474;BME280;3778;42.572;23.426;2023-02-03T01:28:29;95578.97;;;-146.70;78.47
7474;BME280;3778;42.572;23.426;2023-02-03T01:31:07;95599.81;;;-146.70;79.27
7474;BME280;3778;42.572;23.426;2023-02-03T01:33:34;95626.91;;;-146.70;79.63
7474;BME280;3778;42.572;23.426;2023-02-03T01:36:01;95599.81;;;-146.70;79.30
7474;BME280;3778;42.572;23.426;2023-02-03T01:38:28;95616.47;;;-146.70;78.31
7474;BME280;3778;42.572;23.426;2023-02-03T01:40:55;95574.78;;;-146.70;77.39
7474;BME280;3778;42.572;23.426;2023-02-03T01:43:29;95620.66;;;-146.70;77.02
7474;BME280;3778;42.572;23.426;2023-02-03T01:46:00;95587.31;;;-146.70;77.36
7474;BME280;3778;42.572;23.426;2023-02-03T01:48:28;95581.03;;;-146.70;76.63
7474;BME280;3778;42.572;23.426;2023-02-03T01:50:57;95639.41;;;-146.70;75.28
7474;BME280;3778;42.572;23.426;2023-02-03T01:53:25;95597.72;;;-146.70;73.71
7474;BME280;3778;42.572;23.426;2023-02-03T01:55:52;95581.03;;;-146.70;73.10
7474;BME280;3778;42.572;23.426;2023-02-03T01:58:21;95578.97;;;-146.70;72.59
7474;BME280;3778;42.572;23.426;2023-02-03T02:00:49;95583.13;;;-146.70;72.10
7474;BME280;3778;42.572;23.426;2023-02-03T02:03:17;95616.47;;;-146.70;71.73
7474;BME280;3778;42.572;23.426;2023-02-03T02:05:49;95572.72;;;-146.70;71.61
7474;BME280;3778;42.572;23.426;2023-02-03T02:08:19;95585.22;;;-146.70;71.72
7474;BME280;3778;42.572;23.426;2023-02-03T02:10:47;95556.03;;;-146.70;71.57
7474;BME280;3778;42.572;23.426;2023-02-03T02:13:15;95549.78;;;-146.70;71.62
7474;BME280;3778;42.572;23.426;2023-02-03T02:15:49;95595.63;;;-146.70;71.31
7474;BME280;3778;42.572;23.426;2023-02-03T02:18:31;95578.97;;;-146.70;71.17
7474;BME280;3778;42.572;23.426;2023-02-03T02:21:15;95583.13;;;-146.70;71.42
7474;BME280;3778;42.572;23.426;2023-02-03T02:27:08;95593.56;;;-146.70;70.88
7474;BME280;3778;42.572;23.426;2023-02-03T02:32:50;95545.59;;;-146.70;71.31
7474;BME280;3778;42.572;23.426;2023-02-03T02:35:30;95556.03;;;-146.70;71.36
7474;BME280;3778;42.572;23.426;2023-02-03T02:38:03;95589.38;;;-146.70;70.47
7474;BME280;3778;42.572;23.426;2023-02-03T02:40:34;95574.78;;;-146.70;69.18
7474;BME280;3778;42.572;23.426;2023-02-03T02:43:07;95595.63;;;-146.70;68.46
7474;BME280;3778;42.572;23.426;2023-02-03T02:45:42;95631.06;;;-146.70;68.46
7474;BME280;3778;42.572;23.426;2023-02-03T02:48:18;95560.19;;;-146.70;67.77
7474;BME280;3778;42.572;23.426;2023-02-03T02:50:47;95601.88;;;-146.70;67.90
7474;BME280;3778;42.572;23.426;2023-02-03T02:53:16;95566.44;;;-146.70;68.22
7474;BME280;3778;42.572;23.426;2023-02-03T02:55:45;95572.72;;;-146.70;67.05
7474;BME280;3778;42.572;23.426;2023-02-03T02:58:14;95570.63;;;-146.70;66.72
7474;BME280;3778;42.572;23.426;2023-02-03T03:00:43;95562.28;;;-146.70;66.15
7474;BME280;3778;42.572;23.426;2023-02-03T03:03:16;95566.44;;;-146.70;65.74
7474;BME280;3778;42.572;23.426;2023-02-03T03:05:48;95547.69;;;-146.70;65.59
7474;BME280;3778;42.572;23.426;2023-02-03T03:08:19;95608.16;;;-146.70;64.04
7474;BME280;3778;42.572;23.426;2023-02-03T03:10:47;95564.38;;;-146.70;64.03
7474;BME280;3778;42.572;23.426;2023-02-03T03:13:19;95583.13;;;-146.70;64.33
7474;BME280;3778;42.572;23.426;2023-02-03T03:15:47;95568.53;;;-146.70;63.70
7474;BME280;3778;42.572;23.426;2023-02-03T03:18:20;95547.69;;;-146.70;63.52
7474;BME280;3778;42.572;23.426;2023-02-03T03:20:50;95581.03;;;-146.70;62.93
7474;BME280;3778;42.572;23.426;2023-02-03T03:23:21;95593.56;;;-146.70;63.09
7474;BME280;3778;42.572;23.426;2023-02-03T03:25:53;95556.03;;;-146.70;62.94
7474;BME280;3778;42.572;23.426;2023-02-03T03:28:26;95599.81;;;-146.70;63.27
7474;BME280;3778;42.572;23.426;2023-02-03T03:30:56;95574.78;;;-146.70;62.53
7474;BME280;3778;42.572;23.426;2023-02-03T03:33:24;95543.53;;;-146.70;62.33
7474;BME280;3778;42.572;23.426;2023-02-03T03:35:55;95566.44;;;-146.70;63.02
7474;BME280;3778;42.572;23.426;2023-02-03T03:38:27;95560.19;;;-146.70;63.73
7474;BME280;3778;42.572;23.426;2023-02-03T03:41:01;95581.03;;;-146.70;64.05
7474;BME280;3778;42.572;23.426;2023-02-03T03:43:32;95564.38;;;-146.70;63.00
7474;BME280;3778;42.572;23.426;2023-02-03T03:46:03;95572.72;;;-146.70;62.85
7474;BME280;3778;42.572;23.426;2023-02-03T03:48:38;95551.88;;;-146.70;60.98
7474;BME280;3778;42.572;23.426;2023-02-03T03:51:09;95583.13;;;-146.70;61.18
7474;BME280;3778;42.572;23.426;2023-02-03T03:53:40;95528.94;;;-146.70;62.08
7474;BME280;3778;42.572;23.426;2023-02-03T03:56:11;95528.94;;;-146.70;61.04
7474;BME280;3778;42.572;23.426;2023-02-03T03:58:41;95533.09;;;-146.70;61.73
7474;BME280;3778;42.572;23.426;2023-02-03T04:01:12;95543.53;;;-146.70;60.99
7474;BME280;3778;42.572;23.426;2023-02-03T04:03:44;95566.44;;;-146.70;61.06
7474;BME280;3778;42.572;23.426;2023-02-03T04:06:12;95560.19;;;-146.70;61.70
7474;BME280;3778;42.572;23.426;2023-02-03T04:08:39;95710.28;;;-146.70;62.18
7474;BME280;3778;42.572;23.426;2023-02-03T04:11:06;95664.44;;;-146.70;62.17
7474;BME280;3778;42.572;23.426;2023-02-03T04:13:33;95520.59;;;-146.70;62.54
7474;BME280;3778;42.572;23.426;2023-02-03T04:16:00;95570.63;;;-146.70;63.25
7474;BME280;3778;42.572;23.426;2023-02-03T04:18:26;95587.31;;;-146.70;63.05
7474;BME280;3778;42.572;23.426;2023-02-03T04:20:54;95533.09;;;-146.70;63.24
7474;BME280;3778;42.572;23.426;2023-02-03T04:23:21;95520.59;;;-146.70;64.02
7474;BME280;3778;42.572;23.426;2023-02-03T04:25:48;95539.34;;;-146.70;64.53
7474;BME280;3778;42.572;23.426;2023-02-03T04:28:14;95581.03;;;-146.70;65.05
7474;BME280;3778;42.572;23.426;2023-02-03T04:30:41;95581.03;;;-146.70;65.02
7474;BME280;3778;42.572;23.426;2023-02-03T04:33:08;95558.13;;;-146.70;65.40
7474;BME280;3778;42.572;23.426;2023-02-03T04:35:34;95570.63;;;-146.70;65.12
7474;BME280;3778;42.572;23.426;2023-02-03T04:38:03;95558.13;;;-146.70;65.20
7474;BME280;3778;42.572;23.426;2023-02-03T04:40:30;95574.78;;;-146.70;65.25
7474;BME280;3778;42.572;23.426;2023-02-03T04:42:56;95533.09;;;-146.70;65.63
7474;BME280;3778;42.572;23.426;2023-02-03T04:45:23;95560.19;;;-146.70;65.65
7474;BME280;3778;42.572;23.426;2023-02-03T04:47:51;95562.28;;;-146.70;65.53
7474;BME280;3778;42.572;23.426;2023-02-03T04:50:18;95535.19;;;-146.70;65.78
7474;BME280;3778;42.572;23.426;2023-02-03T04:52:45;95568.53;;;-146.70;65.81
7474;BME280;3778;42.572;23.426;2023-02-03T04:55:13;95637.31;;;-146.70;66.41
7474;BME280;3778;42.572;23.426;2023-02-03T04:57:40;95562.28;;;-146.70;66.38
7474;BME280;3778;42.572;23.426;2023-02-03T05:00:07;95566.44;;;-146.70;66.16
7474;BME280;3778;42.572;23.426;2023-02-03T05:02:34;95583.13;;;-146.70;66.69
7474;BME280;3778;42.572;23.426;2023-02-03T05:05:01;95541.44;;;-146.70;66.44
7474;BME280;3778;42.572;23.426;2023-02-03T05:07:28;95506.00;;;-146.70;66.68
7474;BME280;3778;42.572;23.426;2023-02-03T05:09:55;95495.59;;;-146.70;66.24
7474;BME280;3778;42.572;23.426;2023-02-03T05:12:23;95578.97;;;-146.70;66.62
7474;BME280;3778;42.572;23.426;2023-02-03T05:14:50;95570.63;;;-146.70;65.50
7474;BME280;3778;42.572;23.426;2023-02-03T05:17:16;95549.78;;;-146.70;65.58
7474;BME280;3778;42.572;23.426;2023-02-03T05:19:43;95558.13;;;-146.70;64.94
7474;BME280;3778;42.572;23.426;2023-02-03T05:22:09;95585.22;;;-146.70;65.61
7474;BME280;3778;42.572;23.426;2023-02-03T05:24:36;95581.03;;;-146.70;65.87
7474;BME280;3778;42.572;23.426;2023-02-03T05:27:03;95572.72;;;-146.70;66.25
7474;BME280;3778;42.572;23.426;2023-02-03T05:29:31;95572.72;;;-146.70;66.83
7474;BME280;3778;42.572;23.426;2023-02-03T05:31:58;95601.88;;;-146.70;65.83
7474;BME280;3778;42.572;23.426;2023-02-03T05:34:24;95568.53;;;-146.70;65.78
7474;BME280;3778;42.572;23.426;2023-02-03T05:36:51;95587.31;;;-146.70;65.44
7474;BME280;3778;42.572;23.426;2023-02-03T05:39:18;95556.03;;;-146.70;65.71
7474;BME280;3778;42.572;23.426;2023-02-03T05:41:44;95528.94;;;-146.70;65.88
7474;BME280;3778;42.572;23.426;2023-02-03T05:44:19;95501.84;;;-146.70;65.82
7474;BME280;3778;42.572;23.426;2023-02-03T05:46:48;95574.78;;;-146.70;66.13
7474;BME280;3778;42.572;23.426;2023-02-03T05:49:15;95587.31;;;-146.70;66.33
7474;BME280;3778;42.572;23.426;2023-02-03T05:51:42;95562.28;;;-146.70;66.95
7474;BME280;3778;42.572;23.426;2023-02-03T05:54:09;95583.13;;;-146.70;66.12
7474;BME280;3778;42.572;23.426;2023-02-03T05:56:36;95566.44;;;-146.70;66.56
7474;BME280;3778;42.572;23.426;2023-02-03T05:59:03;95583.13;;;-146.70;66.69
7474;BME280;3778;42.572;23.426;2023-02-03T06:01:30;95562.28;;;-146.70;65.90
7474;BME280;3778;42.572;23.426;2023-02-03T06:03:59;95587.31;;;-146.70;65.80
7474;BME280;3778;42.572;23.426;2023-02-03T06:06:26;95583.13;;;-146.70;65.56
7474;BME280;3778;42.572;23.426;2023-02-03T06:08:58;95595.63;;;-146.70;65.76
7474;BME280;3778;42.572;23.426;2023-02-03T06:11:25;95576.88;;;-146.70;65.15
7474;BME280;3778;42.572;23.426;2023-02-03T06:13:53;95578.97;;;-146.70;65.57
7474;BME280;3778;42.572;23.426;2023-02-03T06:16:19;95587.31;;;-146.70;65.42
7474;BME280;3778;42.572;23.426;2023-02-03T06:18:49;95674.84;;;-146.70;64.53
7474;BME280;3778;42.572;23.426;2023-02-03T06:21:17;95543.53;;;-146.70;65.14
7474;BME280;3778;42.572;23.426;2023-02-03T06:23:44;95535.19;;;-146.70;64.23
7474;BME280;3778;42.572;23.426;2023-02-03T06:26:11;95587.31;;;-146.70;63.99
7474;BME280;3778;42.572;23.426;2023-02-03T06:28:37;95560.19;;;-146.70;63.60
7474;BME280;3778;42.572;23.426;2023-02-03T06:31:04;95549.78;;;-146.70;63.99
7474;BME280;3778;42.572;23.426;2023-02-03T06:33:32;95564.38;;;-146.70;63.84
7474;BME280;3778;42.572;23.426;2023-02-03T06:35:58;95568.53;;;-146.70;63.55
7474;BME280;3778;42.572;23.426;2023-02-03T06:38:26;95570.63;;;-146.70;62.23
7474;BME280;3778;42.572;23.426;2023-02-03T06:40:53;95553.94;;;-146.70;62.21
7474;BME280;3778;42.572;23.426;2023-02-03T06:43:20;95481.00;;;-146.70;61.97
7474;BME280;3778;42.572;23.426;2023-02-03T06:45:47;95533.09;;;-146.70;61.69
7474;BME280;3778;42.572;23.426;2023-02-03T06:48:13;95560.19;;;-146.70;61.69
7474;BME280;3778;42.572;23.426;2023-02-03T06:50:40;95583.13;;;-146.70;60.50
7474;BME280;3778;42.572;23.426;2023-02-03T06:53:07;95547.69;;;-146.70;59.85
7474;BME280;3778;42.572;23.426;2023-02-03T06:55:35;95520.59;;;-146.70;59.82
7474;BME280;3778;42.572;23.426;2023-02-03T06:58:01;95564.38;;;-146.70;60.05
7474;BME280;3778;42.572;23.426;2023-02-03T07:00:28;95541.44;;;-146.70;59.72
7474;BME280;3778;42.572;23.426;2023-02-03T07:02:56;95483.06;;;-146.70;59.12
7474;BME280;3778;42.572;23.426;2023-02-03T07:05:24;95566.44;;;-146.70;59.93
7474;BME280;3778;42.572;23.426;2023-02-03T07:07:52;95464.31;;;-146.70;59.73
7474;BME280;3778;42.572;23.426;2023-02-03T07:10:19;95533.09;;;-146.70;59.12
7474;BME280;3778;42.572;23.426;2023-02-03T07:12:47;95533.09;;;-146.70;58.94
7474;BME280;3778;42.572;23.426;2023-02-03T07:15:16;95503.91;;;-146.70;58.44
7474;BME280;3778;42.572;23.426;2023-02-03T07:17:43;95547.69;;;-146.70;58.53
7474;BME280;3778;42.572;23.426;2023-02-03T07:20:12;95558.13;;;-146.70;58.08
7474;BME280;3778;42.572;23.426;2023-02-03T07:22:39;95506.00;;;-146.70;58.00
7474;BME280;3778;42.572;23.426;2023-02-03T07:25:08;95503.91;;;-146.70;58.13
7474;BME280;3778;42.572;23.426;2023-02-03T07:27:34;95503.91;;;-146.70;57.85
7474;BME280;3778;42.572;23.426;2023-02-03T07:30:03;95476.81;;;-146.70;57.95
7474;BME280;3778;42.572;23.426;2023-02-03T07:32:30;95520.59;;;-146.70;57.21
7474;BME280;3778;42.572;23.426;2023-02-03T07:34:57;95447.63;;;-146.70;56.40
7474;BME280;3778;42.572;23.426;2023-02-03T07:37:25;95506.00;;;-146.70;56.05
7474;BME280;3778;42.572;23.426;2023-02-03T07:39:52;95520.59;;;-146.70;55.25
7474;BME280;3778;42.572;23.426;2023-02-03T07:42:19;95441.38;;;-146.70;55.23
7474;BME280;3778;42.572;23.426;2023-02-03T07:44:45;95449.72;;;-146.70;54.71
7474;BME280;3778;42.572;23.426;2023-02-03T07:47:13;95464.31;;;-146.70;54.82
7474;BME280;3778;42.572;23.426;2023-02-03T07:49:40;95520.59;;;-146.70;55.18
7474;BME280;3778;42.572;23.426;2023-02-03T07:52:07;95506.00;;;-146.70;55.28
7474;BME280;3778;42.572;23.426;2023-02-03T07:54:33;95512.25;;;-146.70;54.93
7474;BME280;3778;42.572;23.426;2023-02-03T07:57:00;95522.69;;;-146.70;54.91
7474;BME280;3778;42.572;23.426;2023-02-03T07:59:27;95470.56;;;-146.70;55.34
7474;BME280;3778;42.572;23.426;2023-02-03T08:01:53;95483.06;;;-146.70;55.17
7474;BME280;3778;42.572;23.426;2023-02-03T08:04:22;95481.00;;;-146.70;55.63
7474;BME280;3778;42.572;23.426;2023-02-03T08:06:49;95524.75;;;-146.70;55.41
7474;BME280;3778;42.572;23.426;2023-02-03T08:09:16;95464.31;;;-146.70;54.92
7474;BME280;3778;42.572;23.426;2023-02-03T08:11:42;95508.09;;;-146.70;54.94
7474;BME280;3778;42.572;23.426;2023-02-03T08:14:09;95487.25;;;-146.70;55.11
7474;BME280;3778;42.572;23.426;2023-02-03T08:16:36;95462.22;;;-146.70;55.33
7474;BME280;3778;42.572;23.426;2023-02-03T08:19:02;95462.22;;;-146.70;55.31
7474;BME280;3778;42.572;23.426;2023-02-03T08:21:31;95533.09;;;-146.70;55.06
7474;BME280;3778;42.572;23.426;2023-02-03T08:23:58;95495.59;;;-146.70;55.03
7474;BME280;3778;42.572;23.426;2023-02-03T08:26:24;95478.91;;;-146.70;54.67
7474;BME280;3778;42.572;23.426;2023-02-03T08:28:51;95487.25;;;-146.70;55.10
7474;BME280;3778;42.572;23.426;2023-02-03T08:31:18;95412.22;;;-146.70;54.75
7474;BME280;3778;42.572;23.426;2023-02-03T08:33:44;95433.06;;;-146.70;54.21
7474;BME280;3778;42.572;23.426;2023-02-03T08:36:11;95441.38;;;-146.70;54.94
7474;BME280;3778;42.572;23.426;2023-02-03T08:38:40;95433.06;;;-146.70;54.49
7474;BME280;3778;42.572;23.426;2023-02-03T08:41:11;95478.91;;;-146.70;53.38
7474;BME280;3778;42.572;23.426;2023-02-03T08:43:39;95416.38;;;-146.70;53.02
7474;BME280;3778;42.572;23.426;2023-02-03T08:46:07;95453.91;;;-146.70;53.55
7474;BME280;3778;42.572;23.426;2023-02-03T08:48:34;95408.03;;;-146.70;53.03
7474;BME280;3778;42.572;23.426;2023-02-03T08:51:02;95441.38;;;-146.70;52.76
7474;BME280;3778;42.572;23.426;2023-02-03T08:53:34;95420.53;;;-146.70;52.20
7474;BME280;3778;42.572;23.426;2023-02-03T08:56:04;95449.72;;;-146.70;52.99
7474;BME280;3778;42.572;23.426;2023-02-03T08:58:31;95435.13;;;-146.70;53.45
7474;BME280;3778;42.572;23.426;2023-02-03T09:01:05;95451.81;;;-146.70;53.26
7474;BME280;3778;42.572;23.426;2023-02-03T09:03:32;95420.53;;;-146.70;52.64
7474;BME280;3778;42.572;23.426;2023-02-03T09:06:00;95376.78;;;-146.70;53.70
7474;BME280;3778;42.572;23.426;2023-02-03T09:08:27;95316.31;;;-146.70;53.48
7474;BME280;3778;42.572;23.426;2023-02-03T09:10:53;95389.28;;;-146.70;54.10
7474;BME280;3778;42.572;23.426;2023-02-03T09:13:22;95428.88;;;-146.70;54.99
7474;BME280;3778;42.572;23.426;2023-02-03T09:15:49;95397.63;;;-146.70;54.88
7474;BME280;3778;42.572;23.426;2023-02-03T09:18:15;95445.56;;;-146.70;54.60
7474;BME280;3778;42.572;23.426;2023-02-03T09:20:42;95445.56;;;-146.70;54.75
7474;BME280;3778;42.572;23.426;2023-02-03T09:23:09;95387.19;;;-146.70;54.98
7474;BME280;3778;42.572;23.426;2023-02-03T09:25:35;95441.38;;;-146.70;55.09
7474;BME280;3778;42.572;23.426;2023-02-03T09:28:02;95399.69;;;-146.70;55.74
7474;BME280;3778;42.572;23.426;2023-02-03T09:30:30;95405.94;;;-146.70;56.42
7474;BME280;3778;42.572;23.426;2023-02-03T09:32:57;95395.53;;;-146.70;56.32
7474;BME280;3778;42.572;23.426;2023-02-03T09:35:23;95414.28;;;-146.70;56.87
7474;BME280;3778;42.572;23.426;2023-02-03T09:37:53;95378.84;;;-146.70;57.51
7474;BME280;3778;42.572;23.426;2023-02-03T09:40:23;95422.63;;;-146.70;55.66
7474;BME280;3778;42.572;23.426;2023-02-03T09:43:03;95408.03;;;-146.70;55.71
7474;BME280;3778;42.572;23.426;2023-02-03T09:45:35;95416.38;;;-146.70;55.23
7474;BME280;3778;42.572;23.426;2023-02-03T09:48:04;95380.94;;;-146.70;55.51
7474;BME280;3778;42.572;23.426;2023-02-03T09:50:35;95399.69;;;-146.70;54.96
7474;BME280;3778;42.572;23.426;2023-02-03T09:53:10;95426.78;;;-146.70;55.07
7474;BME280;3778;42.572;23.426;2023-02-03T09:55:39;95358.00;;;-146.70;53.97
7474;BME280;3778;42.572;23.426;2023-02-03T09:58:09;95370.53;;;-146.70;54.80
7474;BME280;3778;42.572;23.426;2023-02-03T10:00:41;95343.44;;;-146.70;54.79
7474;BME280;3778;42.572;23.426;2023-02-03T10:03:16;95333.00;;;-146.70;54.24
7474;BME280;3778;42.572;23.426;2023-02-03T10:05:55;95314.25;;;-146.70;53.97
7474;BME280;3778;42.572;23.426;2023-02-03T10:08:31;95328.84;;;-146.70;52.77
7474;BME280;3778;42.572;23.426;2023-02-03T10:11:08;95412.22;;;-146.70;51.56
7474;BME280;3778;42.572;23.426;2023-02-03T10:13:43;95345.50;;;-146.70;52.63
7474;BME280;3778;42.572;23.426;2023-02-03T10:16:28;95345.50;;;-146.70;52.20
7474;BME280;3778;42.572;23.426;2023-02-03T10:19:01;95337.16;;;-146.70;52.12
7474;BME280;3778;42.572;23.426;2023-02-03T10:21:34;95387.19;;;-146.70;51.68
7474;BME280;3778;42.572;23.426;2023-02-03T10:24:04;95370.53;;;-146.70;51.81
7474;BME280;3778;42.572;23.426;2023-02-03T10:26:34;95362.19;;;-146.70;50.11
7474;BME280;3778;42.572;23.426;2023-02-03T10:29:07;95335.09;;;-146.70;50.07
7474;BME280;3778;42.572;23.426;2023-02-03T10:31:41;95303.81;;;-146.70;49.79
7474;BME280;3778;42.572;23.426;2023-02-03T10:34:12;95291.31;;;-146.70;50.18
7474;BME280;3778;42.572;23.426;2023-02-03T10:36:48;95287.16;;;-146.70;49.27
7474;BME280;3778;42.572;23.426;2023-02-03T10:39:23;95314.25;;;-146.70;48.55
7474;BME280;3778;42.572;23.426;2023-02-03T10:41:53;95303.81;;;-146.70;47.40
7474;BME280;3778;42.572;23.426;2023-02-03T10:44:31;95289.22;;;-146.70;48.52
7474;BME280;3778;42.572;23.426;2023-02-03T10:47:12;95305.91;;;-146.70;49.59
7474;BME280;3778;42.572;23.426;2023-02-03T10:49:41;95337.16;;;-146.70;49.31
7474;BME280;3778;42.572;23.426;2023-02-03T10:52:24;95326.75;;;-146.70;49.16
7474;BME280;3778;42.572;23.426;2023-02-03T10:54:51;95322.59;;;-146.70;47.42
7474;BME280;3778;42.572;23.426;2023-02-03T10:57:18;95349.69;;;-146.70;47.70
7474;BME280;3778;42.572;23.426;2023-02-03T10:59:46;95330.91;;;-146.70;46.14
7474;BME280;3778;42.572;23.426;2023-02-03T11:02:23;95278.81;;;-146.70;44.11
7474;BME280;3778;42.572;23.426;2023-02-03T11:05:17;95232.97;;;-146.70;44.79
7474;BME280;3778;42.572;23.426;2023-02-03T11:07:45;95328.84;;;-146.70;44.58
7474;BME280;3778;42.572;23.426;2023-02-03T11:10:30;95274.63;;;-146.70;44.56
7474;BME280;3778;42.572;23.426;2023-02-03T11:13:11;95245.47;;;-146.70;44.96
7474;BME280;3778;42.572;23.426;2023-02-03T11:15:43;95378.84;;;-146.70;48.52
7474;BME280;3778;42.572;23.426;2023-02-03T11:18:34;95345.50;;;-146.70;48.63
7474;BME280;3778;42.572;23.426;2023-02-03T11:21:07;95345.50;;;-146.70;47.11
7474;BME280;3778;42.572;23.426;2023-02-03T11:23:34;95408.03;;;-146.70;47.48
7474;BME280;3778;42.572;23.426;2023-02-03T11:26:09;95310.06;;;-146.70;48.21
7474;BME280;3778;42.572;23.426;2023-02-03T11:28:41;95383.03;;;-146.70;47.63
7474;BME280;3778;42.572;23.426;2023-02-03T11:31:18;95343.44;;;-146.70;46.20
7474;BME280;3778;42.572;23.426;2023-02-03T11:33:51;95418.47;;;-146.70;46.36
7474;BME280;3778;42.572;23.426;2023-02-03T11:36:19;95403.88;;;-146.70;46.86
7474;BME280;3778;42.572;23.426;2023-02-03T11:38:46;95337.16;;;-146.70;46.28
7474;BME280;3778;42.572;23.426;2023-02-03T11:41:17;95322.59;;;-146.70;45.50
7474;BME280;3778;42.572;23.426;2023-02-03T11:43:45;95297.56;;;-146.70;45.73
7474;BME280;3778;42.572;23.426;2023-02-03T11:46:13;95291.31;;;-146.70;45.93
7474;BME280;3778;42.572;23.426;2023-02-03T11:48:54;95353.84;;;-146.70;47.32
7474;BME280;3778;42.572;23.426;2023-02-03T11:51:31;95397.63;;;-146.70;46.35
7474;BME280;3778;42.572;23.426;2023-02-03T11:54:15;95389.28;;;-146.70;46.11
7474;BME280;3778;42.572;23.426;2023-02-03T11:57:06;95347.59;;;-146.70;45.76
7474;BME280;3778;42.572;23.426;2023-02-03T11:59:55;95316.31;;;-146.70;45.92
7474;BME280;3778;42.572;23.426;2023-02-03T12:05:57;95343.44;;;-146.70;44.79
7474;BME280;3778;42.572;23.426;2023-02-03T12:08:40;95260.06;;;-146.70;44.15
7474;BME280;3778;42.572;23.426;2023-02-03T12:11:17;95343.44;;;-146.70;43.63
7474;BME280;3778;42.572;23.426;2023-02-03T12:14:07;95255.88;;;-146.70;43.32
7474;BME280;3778;42.572;23.426;2023-02-03T12:16:56;95220.44;;;-146.70;45.24
7474;BME280;3778;42.572;23.426;2023-02-03T12:19:35;95207.94;;;-146.70;44.92
7474;BME280;3778;42.572;23.426;2023-02-03T12:22:11;95303.81;;;-146.70;45.95
7474;BME280;3778;42.572;23.426;2023-02-03T12:24:46;95314.25;;;-146.70;46.08
7474;BME280;3778;42.572;23.426;2023-02-03T12:27:29;95368.44;;;-146.70;44.25
7474;BME280;3778;42.572;23.426;2023-02-03T12:30:02;95389.28;;;-146.70;44.35
7474;BME280;3778;42.572;23.426;2023-02-03T12:32:35;95289.22;;;-146.70;43.72
7474;BME280;3778;42.572;23.426;2023-02-03T12:35:11;95316.31;;;-146.70;42.55
7474;BME280;3778;42.572;23.426;2023-02-03T12:37:46;95245.47;;;-146.70;42.86
7474;BME280;3778;42.572;23.426;2023-02-03T12:40:17;95149.59;;;-146.70;41.26
7474;BME280;3778;42.572;23.426;2023-02-03T12:42:52;95120.41;;;-146.70;41.37
7474;BME280;3778;42.572;23.426;2023-02-03T12:45:24;95091.22;;;-146.70;40.92
7474;BME280;3778;42.572;23.426;2023-02-03T12:47:56;95107.91;;;-146.70;41.23
7474;BME280;3778;42.572;23.426;2023-02-03T12:50:28;95139.16;;;-146.70;41.10
7474;BME280;3778;42.572;23.426;2023-02-03T12:53:01;95157.91;;;-146.70;41.31
7474;BME280;3778;42.572;23.426;2023-02-03T12:55:33;95122.50;;;-146.70;41.11
7474;BME280;3778;42.572;23.426;2023-02-03T12:58:04;95099.56;;;-146.70;40.81
7474;BME280;3778;42.572;23.426;2023-02-03T13:00:39;94997.44;;;-146.70;40.24
7474;BME280;3778;42.572;23.426;2023-02-03T13:03:15;95030.78;;;-146.70;39.78
7474;BME280;3778;42.572;23.426;2023-02-03T13:05:49;95109.97;;;-146.70;40.91
7474;BME280;3778;42.572;23.426;2023-02-03T13:08:28;95043.28;;;-146.70;40.68
7474;BME280;3778;42.572;23.426;2023-02-03T13:11:09;95080.81;;;-146.70;41.01
7474;BME280;3778;42.572;23.426;2023-02-03T13:13:41;95020.38;;;-146.70;41.02